Time;durP1;ratioP1;P1;durP2;ratioP2;P2;SDS_P1;SDS_P2;PMS_P1;PMS_P2;Temp;Humidity;BMP_temperature;BMP_pressure;BME280_temperature;BME280_humidity;BME280_pressure;Samples;Min_cycle;Max_cycle;Signal;HPM_P1;HPM_P2
2021/04/13 00:00:49;;;;;;;6.85;1.58;;;;;;;;;;4986880;28;20058;-55
2021/04/13 00:03:14;;;;;;;6.50;1.58;;;;;;;;;;4989956;28;20125;-55
2021/04/13 00:05:40;;;;;;;3.75;1.42;;;;;;;;;;4985139;28;20128;-55
2021/04/13 00:08:15;;;;;;;3.72;1.10;;;;;;;;;;4986641;28;20054;-53
2021/04/13 00:10:43;;;;;;;3.53;1.20;;;;;;;;;;4987631;28;20089;-56
2021/04/13 00:13:10;;;;;;;2.63;1.00;;;;;;;;;;4987910;28;20045;-54
2021/04/13 00:15:49;;;;;;;4.47;1.25;;;;;;;;;;4985512;28;20042;-56
2021/04/13 00:18:17;;;;;;;6.82;2.40;;;;;;;;;;4987224;28;20080;-55
2021/04/13 00:20:43;;;;;;;3.45;1.45;;;;;;;;;;4988269;28;20030;-55
2021/04/13 00:23:09;;;;;;;4.80;1.02;;;;;;;;;;4988472;28;20096;-54
2021/04/13 00:25:37;;;;;;;4.88;1.55;;;;;;;;;;4987671;28;20035;-55
2021/04/13 00:28:03;;;;;;;3.00;1.00;;;;;;;;;;4988382;28;20074;-56
2021/04/13 00:30:38;;;;;;;3.15;1.20;;;;;;;;;;4986401;28;20033;-56
2021/04/13 00:33:04;;;;;;;8.13;1.35;;;;;;;;;;4986818;28;20038;-54
2021/04/13 00:35:43;;;;;;;3.45;1.30;;;;;;;;;;4986530;28;20097;-50
2021/04/13 00:38:13;;;;;;;3.55;1.10;;;;;;;;;;4988253;28;20542;-54
2021/04/13 00:40:39;;;;;;;5.43;1.40;;;;;;;;;;4987923;28;20081;-55
2021/04/13 00:43:06;;;;;;;6.30;1.60;;;;;;;;;;4973375;28;20118;-56
2021/04/13 00:45:34;;;;;;;9.45;2.45;;;;;;;;;;4987976;28;20483;-56
2021/04/13 00:48:02;;;;;;;4.40;1.90;;;;;;;;;;4989396;28;20070;-55
2021/04/13 00:50:36;;;;;;;5.95;1.45;;;;;;;;;;4987975;28;20546;-56
2021/04/13 00:53:03;;;;;;;2.70;1.17;;;;;;;;;;4990794;28;20046;-55
2021/04/13 00:55:35;;;;;;;4.50;1.50;;;;;;;;;;4989157;28;20112;-56
2021/04/13 00:58:13;;;;;;;3.97;1.50;;;;;;;;;;4992098;28;20053;-56
2021/04/13 01:00:42;;;;;;;6.50;2.50;;;;;;;;;;4991515;28;20054;-58
2021/04/13 01:03:08;;;;;;;6.40;1.80;;;;;;;;;;4993006;28;20037;-57
2021/04/13 01:05:33;;;;;;;6.45;1.80;;;;;;;;;;4990266;28;20088;-53
2021/04/13 01:08:13;;;;;;;4.10;1.60;;;;;;;;;;4992785;28;20057;-55
2021/04/13 01:10:42;;;;;;;4.75;1.60;;;;;;;;;;4991116;28;20046;-55
2021/04/13 01:13:16;;;;;;;4.68;1.33;;;;;;;;;;4922809;28;20750;-53
2021/04/13 01:15:43;;;;;;;5.35;1.60;;;;;;;;;;4933097;28;20047;-55
2021/04/13 01:18:12;;;;;;;4.25;1.52;;;;;;;;;;4919508;28;20125;-55
2021/04/13 01:20:39;;;;;;;21.92;3.00;;;;;;;;;;4932458;28;20552;-56
2021/04/13 01:23:17;;;;;;;2.92;1.30;;;;;;;;;;4934977;28;20145;-56
2021/04/13 01:25:45;;;;;;;3.60;1.50;;;;;;;;;;4932665;28;20046;-55
2021/04/13 01:28:18;;;;;;;5.35;1.40;;;;;;;;;;4934512;28;20067;-57
2021/04/13 01:30:46;;;;;;;3.38;1.42;;;;;;;;;;4934359;28;20050;-52
2021/04/13 01:33:18;;;;;;;4.38;1.52;;;;;;;;;;4934773;28;20189;-56
2021/04/13 01:35:56;;;;;;;6.15;1.50;;;;;;;;;;4932527;28;20039;-57
2021/04/13 01:38:28;;;;;;;8.20;1.60;;;;;;;;;;4932574;28;20105;-56
2021/04/13 01:41:07;;;;;;;4.05;1.70;;;;;;;;;;4937630;28;20543;-52
2021/04/13 01:43:37;;;;;;;5.70;1.52;;;;;;;;;;4952360;28;20074;-54
2021/04/13 01:46:03;;;;;;;6.93;1.75;;;;;;;;;;4948066;28;20038;-56
2021/04/13 01:48:30;;;;;;;6.60;1.60;;;;;;;;;;4948305;28;20432;-56
2021/04/13 01:50:58;;;;;;;10.95;2.20;;;;;;;;;;4974125;28;20053;-56
2021/04/13 01:53:26;;;;;;;8.30;1.50;;;;;;;;;;4989164;28;20053;-52
2021/04/13 01:55:57;;;;;;;5.43;1.40;;;;;;;;;;4989538;28;20072;-54
2021/04/13 01:58:39;;;;;;;6.43;1.70;;;;;;;;;;4989173;28;20048;-54
2021/04/13 02:01:17;;;;;;;5.35;1.58;;;;;;;;;;4990299;28;20395;-53
2021/04/13 02:03:46;;;;;;;5.95;1.73;;;;;;;;;;4990143;28;20040;-55
2021/04/13 02:06:22;;;;;;;4.90;1.52;;;;;;;;;;4988180;28;20099;-56
2021/04/13 02:08:51;;;;;;;3.95;1.67;;;;;;;;;;4990371;28;20065;-53
2021/04/13 02:11:23;;;;;;;5.30;1.50;;;;;;;;;;4987523;28;20041;-52
2021/04/13 02:13:54;;;;;;;4.53;1.38;;;;;;;;;;4971563;28;20100;-55
2021/04/13 02:16:34;;;;;;;5.28;1.48;;;;;;;;;;4989413;28;21974;-53
2021/04/13 02:19:02;;;;;;;5.10;1.88;;;;;;;;;;4990190;28;20045;-55
2021/04/13 02:21:32;;;;;;;5.50;1.38;;;;;;;;;;4988397;28;20486;-53
2021/04/13 02:24:03;;;;;;;8.68;1.73;;;;;;;;;;4989309;28;20035;-56
2021/04/13 02:26:29;;;;;;;6.47;1.50;;;;;;;;;;4985743;28;20034;-54
2021/04/13 02:28:56;;;;;;;12.80;1.60;;;;;;;;;;4990412;28;20177;-55
2021/04/13 02:34:18;;;;;;;7.65;1.70;;;;;;;;;;4989345;28;20162;-53
2021/04/13 02:36:44;;;;;;;;;;;;;;;;;;4990228;28;20034;-54
2021/04/13 02:39:14;;;;;;;4.47;1.30;;;;;;;;;;4992751;28;19913;-55
2021/04/13 02:41:46;;;;;;;7.45;1.48;;;;;;;;;;4988260;28;20050;-53
2021/04/13 02:44:14;;;;;;;3.95;1.58;;;;;;;;;;4989379;28;20042;-53
2021/04/13 02:46:40;;;;;;;3.95;1.40;;;;;;;;;;4969714;28;20038;-54
2021/04/13 02:49:07;;;;;;;3.83;1.48;;;;;;;;;;4989539;28;20530;-52
2021/04/13 02:51:34;;;;;;;3.35;1.20;;;;;;;;;;4989288;28;20570;-55
2021/04/13 02:54:01;;;;;;;5.32;1.75;;;;;;;;;;4987086;28;20509;-52
2021/04/13 02:56:26;;;;;;;5.15;1.50;;;;;;;;;;4989236;28;20156;-55
2021/04/13 02:58:57;;;;;;;9.82;1.67;;;;;;;;;;4989681;28;20054;-54
2021/04/13 03:01:23;;;;;;;5.30;1.50;;;;;;;;;;4988222;28;20120;-55
2021/04/13 03:03:50;;;;;;;3.97;1.40;;;;;;;;;;4989408;28;20060;-53
2021/04/13 03:06:17;;;;;;;5.78;1.30;;;;;;;;;;4987466;28;20038;-56
2021/04/13 03:08:43;;;;;;;5.28;1.58;;;;;;;;;;4987739;28;20054;-55
2021/04/13 03:11:17;;;;;;;8.45;1.48;;;;;;;;;;4990012;28;20097;-54
2021/04/13 03:13:44;;;;;;;6.68;1.63;;;;;;;;;;4988226;28;20121;-55
2021/04/13 03:16:11;;;;;;;4.75;1.88;;;;;;;;;;4987048;28;20044;-55
2021/04/13 03:18:42;;;;;;;8.45;1.30;;;;;;;;;;4985893;28;20113;-56
2021/04/13 03:21:25;;;;;;;4.95;1.63;;;;;;;;;;4985927;28;20052;-55
2021/04/13 03:23:52;;;;;;;5.93;1.30;;;;;;;;;;4989549;28;20160;-57
2021/04/13 03:26:38;;;;;;;6.10;1.50;;;;;;;;;;4987329;28;20074;-55
2021/04/13 03:29:11;;;;;;;6.03;1.50;;;;;;;;;;4991063;28;20041;-55
2021/04/13 03:31:37;;;;;;;;;;;;;;;;;;4989566;28;20049;-52
2021/04/13 03:34:03;;;;;;;6.38;1.73;;;;;;;;;;4989089;28;19917;-54
2021/04/13 03:36:30;;;;;;;4.72;1.50;;;;;;;;;;4987278;28;20141;-55
2021/04/13 03:39:00;;;;;;;8.68;1.30;;;;;;;;;;4989503;28;20038;-56
2021/04/13 03:41:27;;;;;;;5.35;1.50;;;;;;;;;;4987042;28;20522;-54
2021/04/13 03:43:57;;;;;;;4.50;1.23;;;;;;;;;;4987652;28;20054;-55
2021/04/13 03:46:24;;;;;;;6.80;1.65;;;;;;;;;;4987483;28;20034;-55
2021/04/13 03:48:51;;;;;;;7.95;1.50;;;;;;;;;;4988267;28;20061;-55
2021/04/13 03:51:38;;;;;;;8.52;1.83;;;;;;;;;;4987277;28;20366;-55
2021/04/13 03:54:18;;;;;;;8.20;1.40;;;;;;;;;;4988920;28;20095;-54
2021/04/13 03:56:44;;;;;;;5.45;1.50;;;;;;;;;;4986254;28;20046;-54
2021/04/13 03:59:16;;;;;;;8.20;1.60;;;;;;;;;;4989665;28;20040;-54
2021/04/13 04:01:42;;;;;;;8.70;1.60;;;;;;;;;;4990231;28;20115;-54
2021/04/13 04:04:19;;;;;;;6.43;1.30;;;;;;;;;;4986825;28;22284;-54
2021/04/13 04:06:51;;;;;;;7.40;1.55;;;;;;;;;;4987367;28;20042;-55
2021/04/13 04:09:19;;;;;;;8.10;1.55;;;;;;;;;;4984612;28;20053;-55
2021/04/13 04:11:45;;;;;;;9.25;1.52;;;;;;;;;;4988193;28;20038;-52
2021/04/13 04:14:21;;;;;;;4.57;1.48;;;;;;;;;;4983281;28;20191;-53
2021/04/13 04:16:48;;;;;;;4.05;1.20;;;;;;;;;;4988960;28;20439;-54
2021/04/13 04:19:17;;;;;;;6.40;1.40;;;;;;;;;;4989180;28;20186;-52
2021/04/13 04:21:45;;;;;;;4.43;1.30;;;;;;;;;;4989585;28;20064;-55
2021/04/13 04:24:21;;;;;;;5.82;1.33;;;;;;;;;;4985195;28;20479;-55
2021/04/13 04:26:51;;;;;;;4.80;1.17;;;;;;;;;;4988331;28;20498;-55
2021/04/13 04:29:29;;;;;;;4.97;1.20;;;;;;;;;;4991152;28;20076;-55
2021/04/13 04:31:55;;;;;;;5.32;1.40;;;;;;;;;;4973609;28;20167;-54
2021/04/13 04:34:21;;;;;;;8.57;1.48;;;;;;;;;;4993928;28;20439;-54
2021/04/13 04:36:48;;;;;;;4.30;1.42;;;;;;;;;;4995612;28;20046;-52
2021/04/13 04:39:23;;;;;;;6.88;1.52;;;;;;;;;;4994387;28;20037;-55
2021/04/13 04:41:49;;;;;;;6.57;1.50;;;;;;;;;;4993835;28;20046;-52
2021/04/13 04:44:26;;;;;;;5.03;1.40;;;;;;;;;;4994282;28;20780;-55
2021/04/13 04:46:58;;;;;;;6.72;1.20;;;;;;;;;;4995383;28;20428;-55
2021/04/13 04:49:25;;;;;;;10.38;1.35;;;;;;;;;;4996033;28;20065;-55
2021/04/13 04:51:52;;;;;;;8.05;1.15;;;;;;;;;;4995566;28;20088;-55
2021/04/13 04:54:18;;;;;;;6.35;1.40;;;;;;;;;;4994032;28;20066;-52
2021/04/13 04:56:44;;;;;;;4.88;1.58;;;;;;;;;;4992322;28;20045;-54
2021/04/13 04:59:10;;;;;;;4.25;1.40;;;;;;;;;;4992245;28;20513;-54
2021/04/13 05:01:36;;;;;;;6.00;1.40;;;;;;;;;;4991712;28;20038;-55
2021/04/13 05:04:02;;;;;;;6.43;1.40;;;;;;;;;;4993042;28;20104;-55
2021/04/13 05:06:28;;;;;;;9.70;1.48;;;;;;;;;;4993795;28;20030;-53
2021/04/13 05:08:54;;;;;;;5.55;1.00;;;;;;;;;;4993727;28;20538;-54
2021/04/13 05:11:20;;;;;;;6.90;1.38;;;;;;;;;;4991496;28;20116;-53
2021/04/13 05:13:46;;;;;;;3.22;1.20;;;;;;;;;;4974254;28;20046;-52
2021/04/13 05:16:12;;;;;;;5.88;1.30;;;;;;;;;;4993025;28;20053;-53
2021/04/13 05:18:38;;;;;;;5.07;1.30;;;;;;;;;;4992996;28;20092;-55
2021/04/13 05:21:04;;;;;;;9.43;1.50;;;;;;;;;;4993347;28;20052;-55
2021/04/13 05:23:30;;;;;;;5.43;1.05;;;;;;;;;;4992724;28;20146;-55
2021/04/13 05:25:56;;;;;;;6.18;1.10;;;;;;;;;;4994386;28;20227;-54
2021/04/13 05:28:22;;;;;;;3.90;1.40;;;;;;;;;;4992736;28;20046;-53
2021/04/13 05:30:49;;;;;;;4.35;1.00;;;;;;;;;;4993274;28;20041;-54
2021/04/13 05:33:15;;;;;;;4.45;1.23;;;;;;;;;;4993015;28;21965;-54
2021/04/13 05:35:41;;;;;;;4.32;1.17;;;;;;;;;;4993409;28;20038;-53
2021/04/13 05:38:11;;;;;;;6.15;1.50;;;;;;;;;;4995825;28;20061;-54
2021/04/13 05:40:39;;;;;;;4.22;1.38;;;;;;;;;;4992261;28;20645;-54
2021/04/13 05:43:04;;;;;;;4.35;1.27;;;;;;;;;;4992049;28;20050;-56
2021/04/13 05:45:32;;;;;;;7.22;1.45;;;;;;;;;;4990146;28;20034;-54
2021/04/13 05:47:58;;;;;;;5.18;1.35;;;;;;;;;;4991625;28;22084;-53
2021/04/13 05:50:29;;;;;;;17.48;1.95;;;;;;;;;;4991229;28;20173;-53
2021/04/13 05:52:55;;;;;;;7.25;1.48;;;;;;;;;;4991526;28;20211;-53
2021/04/13 05:55:21;;;;;;;5.55;1.38;;;;;;;;;;4992435;28;20518;-52
2021/04/13 05:57:49;;;;;;;7.90;1.38;;;;;;;;;;4990855;28;20529;-56
2021/04/13 06:00:16;;;;;;;12.55;1.48;;;;;;;;;;4989787;28;20386;-56
2021/04/13 06:02:42;;;;;;;4.95;1.60;;;;;;;;;;4989270;28;20038;-54
2021/04/13 06:05:09;;;;;;;8.82;1.65;;;;;;;;;;4992098;28;20374;-55
2021/04/13 06:07:34;;;;;;;6.22;1.67;;;;;;;;;;4989354;28;20043;-55
2021/04/13 06:10:00;;;;;;;4.53;1.20;;;;;;;;;;4988607;28;20046;-54
2021/04/13 06:12:26;;;;;;;6.75;1.52;;;;;;;;;;4989754;28;20045;-56
2021/04/13 06:14:53;;;;;;;4.35;1.70;;;;;;;;;;4989078;28;20046;-54
2021/04/13 06:17:19;;;;;;;5.22;1.50;;;;;;;;;;4989027;28;20089;-54
2021/04/13 06:19:45;;;;;;;10.27;1.48;;;;;;;;;;4991001;28;20046;-55
2021/04/13 06:22:11;;;;;;;8.80;1.63;;;;;;;;;;4989201;28;20034;-55
2021/04/13 06:24:37;;;;;;;5.63;1.63;;;;;;;;;;4988878;28;20475;-54
2021/04/13 06:27:03;;;;;;;5.07;1.48;;;;;;;;;;4990501;28;20173;-54
2021/04/13 06:29:32;;;;;;;8.55;1.90;;;;;;;;;;4989041;28;20403;-55
2021/04/13 06:31:58;;;;;;;6.63;1.45;;;;;;;;;;4991395;28;20052;-52
2021/04/13 06:34:24;;;;;;;5.20;1.80;;;;;;;;;;4991657;28;20041;-53
2021/04/13 06:36:49;;;;;;;7.95;1.73;;;;;;;;;;4990241;28;20513;-52
2021/04/13 06:39:16;;;;;;;11.30;1.85;;;;;;;;;;4989286;28;20042;-55
2021/04/13 06:41:45;;;;;;;7.57;1.67;;;;;;;;;;4989425;28;20050;-55
2021/04/13 06:44:43;;;;;;;5.95;1.60;;;;;;;;;;4989174;28;20046;-54
2021/04/13 06:47:09;;;;;;;9.65;2.13;;;;;;;;;;4940756;28;20038;-56
2021/04/13 06:49:59;;;;;;;5.82;1.67;;;;;;;;;;4990358;28;20076;-55
2021/04/13 06:52:33;;;;;;;6.32;1.48;;;;;;;;;;4986499;28;20030;-52
2021/04/13 06:55:08;;;;;;;6.22;1.65;;;;;;;;;;4989088;28;20448;-55
2021/04/13 06:57:34;;;;;;;4.43;1.50;;;;;;;;;;4987221;28;20550;-52
2021/04/13 07:00:12;;;;;;;7.35;1.85;;;;;;;;;;4989009;28;20159;-53
2021/04/13 07:02:38;;;;;;;10.30;1.90;;;;;;;;;;4989860;28;20049;-55
2021/04/13 07:05:09;;;;;;;12.88;2.20;;;;;;;;;;4988652;28;20037;-55
2021/04/13 07:07:38;;;;;;;8.80;2.00;;;;;;;;;;4987363;28;20105;-53
2021/04/13 07:10:06;;;;;;;6.28;1.98;;;;;;;;;;4989234;28;20042;-55
2021/04/13 07:12:43;;;;;;;9.80;2.10;;;;;;;;;;4988636;28;20033;-55
2021/04/13 07:15:29;;;;;;;7.20;1.70;;;;;;;;;;4988970;28;20041;-53
2021/04/13 07:17:57;;;;;;;6.32;1.90;;;;;;;;;;4987319;28;20301;-54
2021/04/13 07:20:49;;;;;;;7.55;1.73;;;;;;;;;;4989382;28;20458;-53
2021/04/13 07:23:18;;;;;;;5.07;1.73;;;;;;;;;;4957144;28;20083;-55
2021/04/13 07:26:05;;;;;;;9.27;1.80;;;;;;;;;;4972728;28;20034;-55
2021/04/13 07:28:37;;;;;;;3.33;1.42;;;;;;;;;;4986898;28;20161;-54
2021/04/13 07:31:06;;;;;;;5.85;1.45;;;;;;;;;;4985964;28;20045;-55
2021/04/13 07:33:33;;;;;;;7.70;1.70;;;;;;;;;;4987768;28;20125;-55
2021/04/13 07:36:09;;;;;;;6.75;1.77;;;;;;;;;;4989655;28;20066;-54
2021/04/13 07:38:45;;;;;;;10.25;1.73;;;;;;;;;;4987313;28;20117;-56
2021/04/13 07:41:16;;;;;;;3.45;1.45;;;;;;;;;;4987984;28;20192;-55
2021/04/13 07:44:17;;;;;;;7.65;2.10;;;;;;;;;;4987991;28;20045;-52
2021/04/13 07:46:55;;;;;;;11.88;2.13;;;;;;;;;;4910264;29;20075;-55
2021/04/13 07:49:21;;;;;;;6.95;1.85;;;;;;;;;;4978598;28;20046;-55
2021/04/13 07:51:50;;;;;;;6.65;1.88;;;;;;;;;;4990566;28;20048;-56
2021/04/13 07:54:25;;;;;;;6.40;1.98;;;;;;;;;;4990541;28;20042;-55
2021/04/13 07:57:00;;;;;;;5.57;1.63;;;;;;;;;;4987207;28;20065;-54
2021/04/13 07:59:34;;;;;;;6.72;1.83;;;;;;;;;;4986963;28;20077;-53
2021/04/13 08:01:59;;;;;;;5.78;2.25;;;;;;;;;;4990166;28;20061;-52
2021/04/13 08:04:27;;;;;;;5.72;1.67;;;;;;;;;;4984901;28;20093;-55
2021/04/13 08:07:05;;;;;;;7.88;1.83;;;;;;;;;;4987842;28;20255;-54
2021/04/13 08:09:41;;;;;;;6.68;1.90;;;;;;;;;;4986726;28;20100;-52
2021/04/13 08:12:23;;;;;;;5.13;1.92;;;;;;;;;;4988816;28;20591;-54
2021/04/13 08:14:49;;;;;;;6.28;2.13;;;;;;;;;;4986210;28;20049;-55
2021/04/13 08:17:15;;;;;;;5.90;2.00;;;;;;;;;;4987822;28;20038;-54
2021/04/13 08:19:41;;;;;;;5.95;2.10;;;;;;;;;;4988091;28;20337;-52
2021/04/13 08:22:07;;;;;;;6.32;2.08;;;;;;;;;;4986984;28;20050;-54
2021/04/13 08:24:35;;;;;;;5.70;2.00;;;;;;;;;;4984797;28;20112;-52
2021/04/13 08:27:24;;;;;;;5.05;1.83;;;;;;;;;;4988838;28;20398;-54
2021/04/13 08:30:02;;;;;;;7.72;2.92;;;;;;;;;;4980306;28;20138;-55
2021/04/13 08:32:54;;;;;;;6.05;2.03;;;;;;;;;;4978604;28;20721;-55
2021/04/13 08:35:42;;;;;;;14.02;2.30;;;;;;;;;;4985312;28;20533;-54
2021/04/13 08:38:16;;;;;;;7.60;2.20;;;;;;;;;;4978418;28;20042;-55
2021/04/13 08:40:45;;;;;;;5.25;2.00;;;;;;;;;;4985640;28;20583;-55
2021/04/13 08:43:20;;;;;;;4.43;1.98;;;;;;;;;;4987771;28;20150;-54
2021/04/13 08:45:49;;;;;;;5.07;2.13;;;;;;;;;;4988080;28;20038;-54
2021/04/13 08:48:36;;;;;;;5.35;2.05;;;;;;;;;;4985537;28;20054;-56
2021/04/13 08:51:09;;;;;;;5.25;2.40;;;;;;;;;;4987057;28;20058;-55
2021/04/13 08:53:39;;;;;;;5.53;1.95;;;;;;;;;;4984501;28;20804;-52
2021/04/13 08:56:07;;;;;;;11.82;2.85;;;;;;;;;;4989367;28;20635;-54
2021/04/13 08:58:39;;;;;;;8.88;2.42;;;;;;;;;;4986720;28;20049;-55
2021/04/13 09:01:23;;;;;;;5.82;2.25;;;;;;;;;;4987032;28;20469;-52
2021/04/13 09:03:49;;;;;;;6.78;2.70;;;;;;;;;;4987068;28;20546;-54
2021/04/13 09:06:18;;;;;;;7.03;2.25;;;;;;;;;;4969514;28;20042;-52
2021/04/13 09:08:48;;;;;;;8.20;2.45;;;;;;;;;;4986396;28;20141;-52
2021/04/13 09:11:17;;;;;;;5.45;2.25;;;;;;;;;;4987732;28;20034;-54
2021/04/13 09:13:47;;;;;;;9.35;2.53;;;;;;;;;;4984888;28;20045;-52
2021/04/13 09:16:22;;;;;;;6.28;2.10;;;;;;;;;;4989966;28;20050;-54
2021/04/13 09:18:50;;;;;;;8.90;2.45;;;;;;;;;;4990937;28;20034;-55
2021/04/13 09:21:25;;;;;;;6.70;2.35;;;;;;;;;;4991380;28;20521;-54
2021/04/13 09:24:09;;;;;;;5.68;2.00;;;;;;;;;;4989143;28;20577;-55
2021/04/13 09:26:41;;;;;;;5.90;2.30;;;;;;;;;;4989979;28;20034;-51
2021/04/13 09:29:30;;;;;;;6.90;2.17;;;;;;;;;;4991558;28;20053;-51
2021/04/13 09:31:57;;;;;;;6.40;2.15;;;;;;;;;;4981134;28;20045;-55
2021/04/13 09:34:25;;;;;;;7.18;2.50;;;;;;;;;;4988132;28;20696;-52
2021/04/13 09:37:21;;;;;;;6.78;2.13;;;;;;;;;;4991425;28;20399;-52
2021/04/13 09:40:05;;;;;;;5.53;2.20;;;;;;;;;;4909217;28;20052;-55
2021/04/13 09:42:46;;;;;;;5.25;2.20;;;;;;;;;;4991028;28;20462;-51
2021/04/13 09:45:35;;;;;;;4.35;2.20;;;;;;;;;;4992526;28;20038;-54
2021/04/13 09:48:00;;;;;;;4.85;2.20;;;;;;;;;;4990680;28;20057;-54
2021/04/13 09:50:29;;;;;;;15.38;3.05;;;;;;;;;;4993792;28;20489;-54
2021/04/13 09:53:04;;;;;;;6.53;2.55;;;;;;;;;;4991280;28;20100;-54
2021/04/13 09:55:50;;;;;;;4.75;2.50;;;;;;;;;;4991301;28;20387;-52
2021/04/13 09:58:19;;;;;;;5.43;2.17;;;;;;;;;;4992382;28;20502;-54
2021/04/13 10:00:48;;;;;;;5.43;2.45;;;;;;;;;;4990572;28;20041;-52
2021/04/13 10:03:29;;;;;;;4.50;2.20;;;;;;;;;;4992408;28;20042;-55
2021/04/13 10:05:59;;;;;;;9.93;2.65;;;;;;;;;;4991184;28;20129;-53
2021/04/13 10:08:27;;;;;;;6.75;2.38;;;;;;;;;;4989988;28;20554;-55
2021/04/13 10:10:57;;;;;;;8.25;2.78;;;;;;;;;;4990729;28;20030;-52
2021/04/13 10:13:32;;;;;;;7.55;2.40;;;;;;;;;;4989067;28;20034;-52
2021/04/13 10:16:00;;;;;;;6.05;1.92;;;;;;;;;;4989762;28;20053;-55
2021/04/13 10:18:29;;;;;;;5.55;2.33;;;;;;;;;;4992636;28;20068;-55
2021/04/13 10:21:00;;;;;;;5.03;2.28;;;;;;;;;;4992479;28;20046;-52
2021/04/13 10:23:32;;;;;;;4.28;2.30;;;;;;;;;;4989244;28;20092;-52
2021/04/13 10:26:01;;;;;;;7.95;2.70;;;;;;;;;;4990362;28;20041;-55
2021/04/13 10:28:33;;;;;;;8.80;2.50;;;;;;;;;;4989262;28;20929;-54
2021/04/13 10:31:17;;;;;;;4.95;2.30;;;;;;;;;;4990047;28;20038;-54
2021/04/13 10:34:02;;;;;;;5.20;2.40;;;;;;;;;;4989800;28;20765;-51
2021/04/13 10:36:30;;;;;;;8.52;2.92;;;;;;;;;;4989598;28;20544;-54
2021/04/13 10:39:26;;;;;;;8.55;2.90;;;;;;;;;;4989708;28;20057;-53
2021/04/13 10:42:11;;;;;;;5.30;2.50;;;;;;;;;;4989451;28;20062;-53
2021/04/13 10:44:55;;;;;;;6.38;2.60;;;;;;;;;;4989328;28;20034;-53
2021/04/13 10:47:33;;;;;;;5.65;2.67;;;;;;;;;;4988239;28;20038;-51
2021/04/13 10:50:18;;;;;;;6.68;3.05;;;;;;;;;;4988392;28;20050;-51
2021/04/13 10:52:56;;;;;;;5.63;2.97;;;;;;;;;;4989647;28;20043;-52
2021/04/13 10:55:22;;;;;;;7.40;2.95;;;;;;;;;;4989065;28;20148;-53
2021/04/13 10:58:00;;;;;;;6.03;2.75;;;;;;;;;;4988911;28;20644;-52
2021/04/13 11:01:01;;;;;;;6.43;2.60;;;;;;;;;;4989434;28;20095;-53
2021/04/13 11:03:55;;;;;;;9.50;2.95;;;;;;;;;;4910416;29;20095;-51
2021/04/13 11:06:40;;;;;;;7.00;3.10;;;;;;;;;;4923718;28;20296;-52
2021/04/13 11:09:24;;;;;;;9.73;3.20;;;;;;;;;;4988023;28;20053;-54
2021/04/13 11:12:04;;;;;;;18.65;3.35;;;;;;;;;;4988444;28;20065;-53
2021/04/13 11:14:33;;;;;;;12.98;3.25;;;;;;;;;;4989577;28;20714;-55
2021/04/13 11:17:33;;;;;;;8.68;3.67;;;;;;;;;;4988888;28;20061;-51
2021/04/13 11:20:13;;;;;;;13.68;3.70;;;;;;;;;;4944934;28;20105;-55
2021/04/13 11:22:58;;;;;;;10.10;3.78;;;;;;;;;;4988131;28;20351;-52
2021/04/13 11:25:42;;;;;;;7.57;3.40;;;;;;;;;;4989146;28;20041;-53
2021/04/13 11:28:23;;;;;;;8.23;3.15;;;;;;;;;;4991293;28;20049;-55
2021/04/13 11:31:07;;;;;;;9.57;3.25;;;;;;;;;;4989024;28;20399;-53
2021/04/13 11:33:56;;;;;;;7.82;3.38;;;;;;;;;;4990133;28;20062;-53
2021/04/13 11:36:40;;;;;;;9.00;2.78;;;;;;;;;;4990040;28;20173;-52
2021/04/13 11:39:12;;;;;;;7.03;3.17;;;;;;;;;;4988794;28;20038;-53
2021/04/13 11:41:56;;;;;;;10.65;3.05;;;;;;;;;;4988511;28;20153;-56
2021/04/13 11:44:45;;;;;;;11.23;3.20;;;;;;;;;;4988493;28;20045;-53
2021/04/13 11:47:20;;;;;;;6.78;3.08;;;;;;;;;;4979744;28;20038;-52
2021/04/13 11:49:46;;;;;;;16.40;4.07;;;;;;;;;;4986731;28;20073;-53
2021/04/13 11:52:19;;;;;;;6.25;3.28;;;;;;;;;;4990247;28;20125;-53
2021/04/13 11:54:49;;;;;;;10.75;3.60;;;;;;;;;;4988054;28;20125;-54
2021/04/13 11:57:17;;;;;;;8.63;2.85;;;;;;;;;;4987725;28;20045;-53
2021/04/13 11:59:43;;;;;;;10.50;2.90;;;;;;;;;;4988685;28;20034;-52
2021/04/13 12:02:23;;;;;;;9.35;3.63;;;;;;;;;;4988729;28;20391;-55
2021/04/13 12:04:54;;;;;;;13.15;3.95;;;;;;;;;;4989246;28;20052;-51
2021/04/13 12:07:55;;;;;;;11.13;3.22;;;;;;;;;;4990828;28;20744;-53
2021/04/13 12:10:27;;;;;;;9.65;3.40;;;;;;;;;;4915593;29;20051;-53
2021/04/13 12:12:53;;;;;;;19.35;4.95;;;;;;;;;;4976359;28;20121;-52
2021/04/13 12:15:19;;;;;;;8.10;3.58;;;;;;;;;;4966820;28;20050;-52
2021/04/13 12:17:48;;;;;;;9.95;3.10;;;;;;;;;;4967098;28;20039;-54
2021/04/13 12:20:23;;;;;;;8.30;3.53;;;;;;;;;;4987054;28;20077;-53
2021/04/13 12:22:50;;;;;;;19.40;3.65;;;;;;;;;;4986591;28;20100;-53
2021/04/13 12:25:37;;;;;;;10.90;2.83;;;;;;;;;;4988615;28;20046;-53
2021/04/13 12:28:05;;;;;;;6.82;3.40;;;;;;;;;;4987747;28;20053;-51
2021/04/13 12:30:33;;;;;;;5.88;3.20;;;;;;;;;;4987732;28;20614;-53
2021/04/13 12:32:59;;;;;;;10.07;3.33;;;;;;;;;;4987092;28;20054;-51
2021/04/13 12:35:44;;;;;;;7.50;3.45;;;;;;;;;;4985635;28;20038;-54
2021/04/13 12:38:28;;;;;;;6.68;2.90;;;;;;;;;;4985942;28;20041;-53
2021/04/13 12:41:12;;;;;;;9.68;3.33;;;;;;;;;;4984435;28;20065;-51
2021/04/13 12:43:45;;;;;;;11.90;3.80;;;;;;;;;;4986163;28;20038;-53
2021/04/13 12:46:20;;;;;;;14.38;3.55;;;;;;;;;;4987517;28;20046;-52
2021/04/13 12:48:47;;;;;;;13.18;3.25;;;;;;;;;;4985477;28;20817;-54
2021/04/13 12:51:24;;;;;;;10.95;3.75;;;;;;;;;;4991438;28;20056;-54
2021/04/13 12:54:06;;;;;;;10.18;3.22;;;;;;;;;;4982145;28;20038;-53
2021/04/13 12:56:32;;;;;;;20.52;3.90;;;;;;;;;;4991341;28;20033;-51
2021/04/13 12:59:13;;;;;;;9.68;3.85;;;;;;;;;;4990700;28;20042;-53
2021/04/13 13:01:43;;;;;;;11.57;3.83;;;;;;;;;;4990484;28;20045;-55
2021/04/13 13:04:13;;;;;;;18.38;4.30;;;;;;;;;;4992462;28;20096;-52
2021/04/13 13:06:40;;;;;;;12.68;3.90;;;;;;;;;;4989704;28;20177;-52
2021/04/13 13:09:06;;;;;;;7.10;3.63;;;;;;;;;;4991727;28;20050;-54
2021/04/13 13:11:32;;;;;;;15.05;4.20;;;;;;;;;;4991145;28;20045;-52
2021/04/13 13:14:01;;;;;;;16.50;4.00;;;;;;;;;;4992425;28;20561;-52
2021/04/13 13:16:27;;;;;;;17.00;4.70;;;;;;;;;;4989218;28;20034;-52
2021/04/13 13:18:56;;;;;;;10.80;4.03;;;;;;;;;;4990164;28;20157;-56
2021/04/13 13:21:29;;;;;;;19.08;4.70;;;;;;;;;;4990956;28;20149;-55
2021/04/13 13:23:58;;;;;;;18.95;4.75;;;;;;;;;;4991431;28;20088;-53
2021/04/13 13:26:26;;;;;;;17.00;4.60;;;;;;;;;;4987647;28;20070;-52
2021/04/13 13:28:52;;;;;;;12.10;3.30;;;;;;;;;;4990776;28;20053;-52
2021/04/13 13:31:25;;;;;;;16.55;4.35;;;;;;;;;;4991918;28;20046;-52
2021/04/13 13:33:52;;;;;;;10.98;3.75;;;;;;;;;;4992207;28;20034;-52
2021/04/13 13:36:18;;;;;;;10.43;3.40;;;;;;;;;;4994517;28;20038;-52
2021/04/13 13:38:45;;;;;;;13.10;3.47;;;;;;;;;;4990293;28;20113;-56
2021/04/13 13:41:12;;;;;;;9.02;3.33;;;;;;;;;;4993676;28;20410;-53
2021/04/13 13:43:38;;;;;;;13.15;3.25;;;;;;;;;;4989715;28;20041;-56
2021/04/13 13:46:09;;;;;;;9.23;3.45;;;;;;;;;;4991768;28;20293;-56
2021/04/13 13:48:35;;;;;;;11.52;3.92;;;;;;;;;;4989477;28;20054;-53
2021/04/13 13:51:12;;;;;;;7.47;3.72;;;;;;;;;;4990300;28;20050;-56
2021/04/13 13:53:48;;;;;;;12.25;3.38;;;;;;;;;;4991178;28;20396;-51
2021/04/13 13:56:31;;;;;;;13.23;3.58;;;;;;;;;;4970336;28;20048;-52
2021/04/13 13:59:15;;;;;;;7.78;3.58;;;;;;;;;;4989726;28;20038;-55
2021/04/13 14:01:41;;;;;;;14.85;4.18;;;;;;;;;;4988786;28;20037;-55
2021/04/13 14:04:10;;;;;;;13.52;4.13;;;;;;;;;;4991109;28;20049;-52
2021/04/13 14:06:36;;;;;;;20.48;4.20;;;;;;;;;;4978236;28;21108;-55
2021/04/13 14:09:11;;;;;;;22.52;4.32;;;;;;;;;;4991654;28;20048;-52
2021/04/13 14:11:38;;;;;;;17.90;4.43;;;;;;;;;;4992077;28;20188;-54
2021/04/13 14:14:09;;;;;;;15.93;3.90;;;;;;;;;;4992666;28;20597;-55
2021/04/13 14:16:49;;;;;;;21.20;4.50;;;;;;;;;;4989852;28;20088;-52
2021/04/13 14:19:18;;;;;;;14.48;4.15;;;;;;;;;;4989974;28;20057;-55
2021/04/13 14:21:44;;;;;;;12.95;4.72;;;;;;;;;;4988955;28;20195;-55
2021/04/13 14:24:11;;;;;;;14.35;4.63;;;;;;;;;;4992146;28;20495;-52
2021/04/13 14:26:39;;;;;;;11.60;5.18;;;;;;;;;;4990750;28;20081;-53
2021/04/13 14:29:14;;;;;;;12.60;4.95;;;;;;;;;;4989931;28;20335;-53
2021/04/13 14:31:41;;;;;;;14.90;5.10;;;;;;;;;;4990413;28;20041;-51
2021/04/13 14:34:08;;;;;;;9.40;4.40;;;;;;;;;;4990797;28;20076;-53
2021/04/13 14:36:35;;;;;;;13.63;4.90;;;;;;;;;;4990711;28;20041;-54
2021/04/13 14:39:03;;;;;;;12.65;4.47;;;;;;;;;;4980066;28;20038;-54
2021/04/13 14:41:30;;;;;;;8.50;4.32;;;;;;;;;;4992046;28;20050;-51
2021/04/13 14:43:56;;;;;;;10.48;4.88;;;;;;;;;;4993381;28;20045;-52
2021/04/13 14:46:22;;;;;;;15.25;4.45;;;;;;;;;;4991004;28;20422;-55
2021/04/13 14:48:47;;;;;;;11.63;5.30;;;;;;;;;;4989049;28;20107;-52
2021/04/13 14:51:13;;;;;;;11.50;5.38;;;;;;;;;;4990382;28;20034;-53
2021/04/13 14:53:41;;;;;;;10.88;4.97;;;;;;;;;;4988782;28;21026;-51
2021/04/13 14:56:07;;;;;;;13.82;5.38;;;;;;;;;;4990302;28;20549;-53
2021/04/13 14:58:33;;;;;;;12.98;5.28;;;;;;;;;;4989537;28;20030;-54
2021/04/13 15:00:59;;;;;;;11.32;5.30;;;;;;;;;;4986642;28;20053;-53
2021/04/13 15:03:25;;;;;;;14.27;5.10;;;;;;;;;;4980450;28;20506;-53
2021/04/13 15:05:51;;;;;;;23.92;5.15;;;;;;;;;;4983936;28;20046;-54
2021/04/13 15:08:22;;;;;;;24.20;5.07;;;;;;;;;;4981759;28;20073;-52
2021/04/13 15:10:48;;;;;;;11.02;4.82;;;;;;;;;;4973332;28;20132;-53